createdAt,value
2018-12-04T05:02:24.299Z,8.50
2018-12-04T05:04:52.364Z,8.40
2018-12-04T05:07:20.443Z,8.30
2018-12-04T05:09:48.527Z,7.90
2018-12-04T05:12:16.596Z,7.90
2018-12-04T05:14:45.385Z,7.90
2018-12-04T05:17:13.469Z,7.90
2018-12-04T05:19:41.557Z,7.90
2018-12-04T05:22:09.644Z,7.90
2018-12-04T05:24:37.722Z,7.80
2018-12-04T05:27:05.800Z,7.80
2018-12-04T05:29:33.880Z,7.70
2018-12-04T05:32:01.952Z,7.50
2018-12-04T05:34:30.030Z,7.70
2018-12-04T05:36:58.250Z,7.70
2018-12-04T05:39:26.324Z,7.70
2018-12-04T05:41:54.412Z,7.50
2018-12-04T05:44:22.517Z,7.60
2018-12-04T05:46:50.591Z,7.60
2018-12-04T05:49:18.679Z,7.30
2018-12-04T05:51:46.775Z,7.50
2018-12-04T05:54:15.327Z,7.50
2018-12-04T05:56:43.787Z,7.50
2018-12-04T05:59:12.111Z,7.20
2018-12-04T06:01:40.213Z,7.40
2018-12-04T06:04:08.294Z,7.40
2018-12-04T06:06:36.379Z,7.40
2018-12-04T06:09:05.836Z,7.50
2018-12-04T06:11:33.907Z,7.30
2018-12-04T06:14:03.037Z,7.30
2018-12-04T06:16:31.116Z,7.50
2018-12-04T06:18:59.207Z,7.40
2018-12-04T06:21:27.340Z,7.60
2018-12-04T06:23:55.439Z,7.30
2018-12-04T06:26:24.061Z,7.60
2018-12-04T06:28:52.184Z,7.70
2018-12-04T06:31:20.313Z,7.80
2018-12-04T06:33:48.413Z,7.60
2018-12-04T06:36:18.099Z,7.50
2018-12-04T06:38:46.249Z,7.60
2018-12-04T06:41:14.392Z,7.60
2018-12-04T06:43:42.684Z,7.60
2018-12-04T06:46:10.937Z,7.60
2018-12-04T06:48:39.053Z,7.60
2018-12-04T06:51:07.159Z,7.60
2018-12-04T06:53:40.899Z,7.50
2018-12-04T06:56:09.259Z,7.20
2018-12-04T06:58:37.356Z,7.30
2018-12-04T07:01:05.568Z,7.30
2018-12-04T07:03:33.639Z,7.10
2018-12-04T07:06:01.724Z,7.30
2018-12-04T07:08:29.840Z,7.10
2018-12-04T07:10:57.940Z,7.30
2018-12-04T07:13:26.013Z,7.10
2018-12-04T07:15:54.108Z,7.20
2018-12-04T07:18:22.179Z,7.20
2018-12-04T07:20:50.272Z,7.30
2018-12-04T07:23:18.427Z,7.30
2018-12-04T07:25:46.517Z,7.50
2018-12-04T07:28:14.638Z,7.50
2018-12-04T07:30:52.280Z,7.40
2018-12-04T07:33:20.380Z,7.60
2018-12-04T07:35:48.480Z,7.60
2018-12-04T07:38:16.555Z,7.40
2018-12-04T07:40:44.651Z,7.70
2018-12-04T07:43:12.716Z,7.70
2018-12-04T07:45:40.816Z,7.90
2018-12-04T07:48:08.904Z,7.80
2018-12-04T07:50:36.992Z,7.80
2018-12-04T07:53:05.074Z,7.80
2018-12-04T07:55:33.164Z,7.80
2018-12-04T07:58:01.253Z,7.80
2018-12-04T08:00:29.812Z,7.90
2018-12-04T08:02:57.905Z,8.00
2018-12-04T08:05:26.989Z,8.00
2018-12-04T08:07:55.067Z,8.10
2018-12-04T08:10:23.177Z,8.00
2018-12-04T08:12:51.223Z,8.20
2018-12-04T08:15:19.308Z,8.00
2018-12-04T08:17:51.239Z,8.30
2018-12-04T08:20:19.317Z,8.30
2018-12-04T08:22:49.078Z,8.40
2018-12-04T08:25:17.165Z,8.70
2018-12-04T08:27:46.915Z,8.60
2018-12-04T08:30:15.002Z,8.40
2018-12-04T08:32:43.100Z,8.20
2018-12-04T08:35:11.320Z,8.10
2018-12-04T08:37:39.429Z,8.10
2018-12-04T08:40:08.310Z,8.00
2018-12-04T08:42:36.391Z,8.30
2018-12-04T08:45:05.299Z,8.20
2018-12-04T08:47:33.375Z,8.00
2018-12-04T08:50:02.971Z,8.10
2018-12-04T08:52:31.047Z,8.40
2018-12-04T08:54:59.123Z,8.70
2018-12-04T08:57:27.226Z,9.10
2018-12-04T08:59:55.303Z,9.10
2018-12-04T09:02:23.384Z,9.10
2018-12-04T09:04:51.459Z,9.10
2018-12-04T09:07:19.551Z,9.10
2018-12-04T09:09:48.716Z,8.90
2018-12-04T09:12:17.969Z,8.60
2018-12-04T09:14:46.055Z,9.00
2018-12-04T09:17:14.131Z,9.00
2018-12-04T09:19:42.217Z,9.00
2018-12-04T09:22:10.286Z,9.20
2018-12-04T09:24:38.391Z,9.00
2018-12-04T09:27:06.490Z,9.00
2018-12-04T09:29:35.124Z,9.00
2018-12-04T09:32:03.172Z,8.90
2018-12-04T09:34:31.243Z,8.90
2018-12-04T09:37:01.423Z,8.90
2018-12-04T09:39:29.509Z,8.70
2018-12-04T09:41:57.584Z,9.10
2018-12-04T09:44:25.665Z,9.20
2018-12-04T09:46:53.744Z,9.10
2018-12-04T09:49:21.838Z,9.90
2018-12-04T09:51:49.924Z,10.30
2018-12-04T09:54:17.959Z,10.60
2018-12-04T09:56:46.055Z,11.00
2018-12-04T09:59:14.249Z,11.80
2018-12-04T10:01:42.259Z,11.90
2018-12-04T10:04:10.371Z,12.70
2018-12-04T10:06:38.449Z,14.10
2018-12-04T10:09:08.656Z,15.50
2018-12-04T10:11:36.739Z,14.20
2018-12-04T10:14:06.015Z,13.30
2018-12-04T10:16:34.100Z,12.80
2018-12-04T10:19:02.688Z,12.70
2018-12-04T10:21:32.993Z,12.50
2018-12-04T10:24:01.085Z,12.30
2018-12-04T10:26:29.169Z,12.30
2018-12-04T10:28:57.263Z,12.00
2018-12-04T10:31:26.149Z,12.20
2018-12-04T10:33:54.224Z,12.40
2018-12-04T10:36:23.237Z,13.90
2018-12-04T10:38:51.319Z,14.20
2018-12-04T10:41:19.400Z,13.90
2018-12-04T10:43:47.491Z,15.70
2018-12-04T10:46:15.572Z,18.20
2018-12-04T10:48:43.696Z,17.80
2018-12-04T10:51:11.780Z,17.50
2018-12-04T10:53:39.879Z,15.90
2018-12-04T10:56:08.095Z,14.90
2018-12-04T10:58:36.388Z,14.40
2018-12-04T11:01:09.981Z,13.80
2018-12-04T11:03:41.643Z,13.10
2018-12-04T11:06:09.716Z,13.80
2018-12-04T11:08:37.812Z,13.10
2018-12-04T11:11:05.901Z,12.30
2018-12-04T11:13:38.040Z,12.30
2018-12-04T11:16:06.120Z,12.20
2018-12-04T11:18:34.193Z,11.70
2018-12-04T11:21:07.045Z,12.30
2018-12-04T11:23:35.115Z,13.20
2018-12-04T11:26:03.869Z,16.30
2018-12-04T11:28:31.960Z,18.90
2018-12-04T11:31:00.041Z,20.60
2018-12-04T11:33:31.931Z,20.30
2018-12-04T11:36:00.061Z,21.30
2018-12-04T11:38:28.171Z,21.30
2018-12-04T11:40:56.256Z,20.80
2018-12-04T11:43:24.343Z,19.10
2018-12-04T11:45:52.429Z,15.90
2018-12-04T11:48:21.923Z,13.80
2018-12-04T11:50:50.003Z,13.00
2018-12-04T11:53:18.083Z,12.70
2018-12-04T11:55:46.185Z,12.40
2018-12-04T11:58:14.284Z,13.50
2018-12-04T12:00:42.372Z,16.60
2018-12-04T12:03:10.457Z,18.60
2018-12-04T12:05:38.538Z,20.40
2018-12-04T12:08:06.658Z,21.30
2018-12-04T12:10:34.730Z,21.60
2018-12-04T12:13:02.831Z,22.10
2018-12-04T12:15:31.107Z,23.00
2018-12-04T12:17:59.216Z,23.60
2018-12-04T12:20:27.448Z,21.60
2018-12-04T12:22:55.532Z,18.30
2018-12-04T12:25:23.603Z,18.00
2018-12-04T12:27:51.748Z,19.20
2018-12-04T12:30:19.888Z,18.10
2018-12-04T12:32:48.011Z,16.50
2018-12-04T12:35:16.088Z,15.40
2018-12-04T12:37:44.176Z,14.20
2018-12-04T12:40:32.009Z,13.60
2018-12-04T12:43:00.084Z,13.60
2018-12-04T12:45:28.158Z,12.70
2018-12-04T12:47:56.395Z,12.40
2018-12-04T12:50:24.460Z,12.90
2018-12-04T12:52:52.581Z,14.20
2018-12-04T12:55:20.837Z,14.20
2018-12-04T12:57:48.946Z,13.50
2018-12-04T13:00:18.864Z,13.30
2018-12-04T13:02:52.992Z,14.30
2018-12-04T13:05:22.075Z,14.90
2018-12-04T13:07:50.175Z,14.00
2018-12-04T13:10:18.299Z,13.10
2018-12-04T13:12:46.467Z,12.60
2018-12-04T13:15:14.698Z,12.10
2018-12-04T13:17:42.804Z,12.10
2018-12-04T13:20:11.440Z,13.30
2018-12-04T13:22:39.596Z,14.40
2018-12-04T13:25:07.791Z,14.30
2018-12-04T13:27:35.900Z,14.10
2018-12-04T13:30:05.984Z,13.60
2018-12-04T13:32:34.076Z,14.90
2018-12-04T13:35:02.332Z,14.10
2018-12-04T13:37:30.401Z,13.00
2018-12-04T13:39:58.659Z,12.40
2018-12-04T13:42:27.343Z,12.50
2018-12-04T13:45:00.999Z,12.40
2018-12-04T13:47:29.276Z,12.50
2018-12-04T13:49:57.426Z,12.40
2018-12-04T13:52:29.334Z,13.30
2018-12-04T13:54:58.868Z,15.80
2018-12-04T13:57:27.091Z,16.40
2018-12-04T13:59:55.207Z,17.60
2018-12-04T14:02:23.287Z,18.50
2018-12-04T14:04:51.379Z,18.70
2018-12-04T14:07:19.788Z,19.20
2018-12-04T14:09:48.819Z,19.60
2018-12-04T14:12:16.903Z,19.80
2018-12-04T14:14:45.009Z,19.40
2018-12-04T14:17:14.051Z,18.70
2018-12-04T14:19:47.659Z,18.50
2018-12-04T14:22:16.292Z,18.60
2018-12-04T14:24:43.843Z,18.00
2018-12-04T14:27:14.172Z,17.50
2018-12-04T14:29:42.296Z,17.60
2018-12-04T14:32:10.370Z,17.60
2018-12-04T14:34:38.439Z,17.20
2018-12-04T14:37:06.530Z,15.60
2018-12-04T14:39:40.289Z,15.20
2018-12-04T14:42:08.341Z,15.20
2018-12-04T14:44:37.459Z,15.30
2018-12-04T14:48:09.335Z,15.00
2018-12-04T14:50:37.445Z,14.50
2018-12-04T14:53:05.617Z,14.00
2018-12-04T14:55:33.685Z,13.20
2018-12-04T14:58:01.766Z,12.90
2018-12-04T15:00:29.896Z,12.50
2018-12-04T15:03:00.654Z,11.90
2018-12-04T15:05:28.746Z,10.90
2018-12-04T15:07:56.831Z,10.20
2018-12-04T15:10:24.929Z,9.50
2018-12-04T15:12:53.054Z,9.00
2018-12-04T15:15:21.315Z,8.80
2018-12-04T15:17:49.394Z,8.60
2018-12-04T15:20:17.753Z,8.40
2018-12-04T15:22:45.826Z,8.10
2018-12-04T15:25:13.890Z,8.00
2018-12-04T15:27:41.968Z,7.80
2018-12-04T15:30:11.009Z,7.50
2018-12-04T15:32:39.073Z,7.30
2018-12-04T15:35:07.172Z,7.20
2018-12-04T15:37:35.380Z,7.20
2018-12-04T15:40:03.742Z,7.10
2018-12-04T15:42:31.836Z,7.10
2018-12-04T15:44:59.968Z,7.10
2018-12-04T15:47:27.963Z,7.20
2018-12-04T15:49:56.036Z,7.00
2018-12-04T15:52:27.416Z,6.80
2018-12-04T15:54:55.510Z,6.80
2018-12-04T15:57:23.543Z,6.70
